createdAt,value
2022-10-04T00:01:12.019Z,99109.80
2022-10-04T00:03:46.773Z,99111.40
2022-10-04T00:06:21.115Z,99110.00
2022-10-04T00:08:50.986Z,99109.80
2022-10-04T00:11:24.869Z,99104.00
2022-10-04T00:13:59.669Z,99101.80
2022-10-04T00:16:33.845Z,99104.00
2022-10-04T00:19:21.637Z,99098.20
2022-10-04T00:21:57.070Z,99094.40
2022-10-04T00:24:31.935Z,99096.40
2022-10-04T00:27:24.605Z,99099.80
2022-10-04T00:30:03.275Z,99099.00
2022-10-04T00:32:39.976Z,99100.00
2022-10-04T00:35:24.813Z,99100.20
2022-10-04T00:38:06.368Z,99104.80
2022-10-04T00:40:38.543Z,99108.40
2022-10-04T00:43:08.323Z,99109.60
2022-10-04T00:45:46.964Z,99104.40
2022-10-04T00:48:46.812Z,99106.40
2022-10-04T00:51:26.393Z,99100.60
2022-10-04T00:54:07.122Z,99105.80
2022-10-04T00:56:58.879Z,99099.00
2022-10-04T00:59:45.894Z,99091.60
2022-10-04T01:02:35.379Z,99095.60
2022-10-04T01:05:12.850Z,99099.80
2022-10-04T01:07:44.032Z,99098.80
2022-10-04T01:10:31.329Z,99093.00
2022-10-04T01:13:18.766Z,99096.60
2022-10-04T01:15:52.611Z,99095.20
2022-10-04T01:18:18.969Z,99099.00
2022-10-04T01:21:00.613Z,99097.40
2022-10-04T01:23:42.612Z,99095.80
2022-10-04T01:26:31.605Z,99087.60
2022-10-04T01:29:11.983Z,99086.60
2022-10-04T01:31:45.674Z,99092.00
2022-10-04T01:34:20.920Z,99090.80
2022-10-04T01:36:48.049Z,99087.60
2022-10-04T01:39:15.491Z,99089.60
2022-10-04T01:42:15.744Z,99096.00
2022-10-04T01:45:19.054Z,99097.60
2022-10-04T01:47:54.508Z,99096.60
2022-10-04T01:50:31.060Z,99094.20
2022-10-04T01:53:25.975Z,99097.40
2022-10-04T01:56:17.446Z,99096.80
2022-10-04T01:58:47.946Z,99102.00
2022-10-04T02:01:30.088Z,99101.00
2022-10-04T02:04:22.247Z,99096.40
2022-10-04T02:06:53.606Z,99097.20
2022-10-04T02:09:33.504Z,99095.00
2022-10-04T02:12:00.258Z,99094.80
2022-10-04T02:14:34.953Z,99099.00
2022-10-04T02:17:02.939Z,99101.20
2022-10-04T02:19:36.185Z,99101.80
2022-10-04T02:22:03.672Z,99102.20
2022-10-04T02:24:32.399Z,99098.40
2022-10-04T02:26:58.853Z,99106.60
2022-10-04T02:29:25.293Z,99102.60
2022-10-04T02:32:10.264Z,99097.40
2022-10-04T02:34:36.852Z,99093.20
2022-10-04T02:37:04.029Z,99097.00
2022-10-04T02:39:38.297Z,99097.80
2022-10-04T02:42:45.235Z,99093.80
2022-10-04T02:45:41.123Z,99094.20
2022-10-04T02:48:39.968Z,99093.60
2022-10-04T02:51:25.057Z,99097.00
2022-10-04T02:54:27.320Z,99094.20
2022-10-04T02:56:55.315Z,99095.00
2022-10-04T02:59:21.731Z,99097.40
2022-10-04T03:01:52.164Z,99096.00
2022-10-04T03:04:20.523Z,99099.40
2022-10-04T03:06:47.041Z,99097.00
2022-10-04T03:09:13.687Z,99099.60
2022-10-04T03:11:40.493Z,99094.00
2022-10-04T03:14:14.656Z,99097.60
2022-10-04T03:16:44.444Z,99096.00
2022-10-04T03:19:11.472Z,99099.40
2022-10-04T03:21:38.528Z,99102.40
2022-10-04T03:24:05.628Z,99104.00
2022-10-04T03:26:40.858Z,99102.40
2022-10-04T03:29:09.702Z,99107.20
2022-10-04T03:31:42.321Z,99106.60
2022-10-04T03:34:24.104Z,99105.00
2022-10-04T03:36:52.624Z,99111.20
2022-10-04T03:39:33.254Z,99109.20
2022-10-04T03:42:22.779Z,99118.20
2022-10-04T03:44:51.430Z,99114.00
2022-10-04T03:47:21.947Z,99115.80
2022-10-04T03:49:50.862Z,99118.40
2022-10-04T03:52:31.008Z,99111.40
2022-10-04T03:55:00.199Z,99110.20
2022-10-04T03:57:26.934Z,99109.20
2022-10-04T03:59:53.334Z,99117.80
2022-10-04T04:02:30.203Z,99116.60
2022-10-04T04:05:22.335Z,99117.40
2022-10-04T04:08:10.130Z,99117.20
2022-10-04T04:10:51.858Z,99118.40
2022-10-04T04:13:29.621Z,99120.80
2022-10-04T04:15:56.457Z,99124.60
2022-10-04T04:18:24.526Z,99126.20
2022-10-04T04:20:52.955Z,99126.60
2022-10-04T04:23:38.362Z,99127.80
2022-10-04T04:26:16.796Z,99129.80
2022-10-04T04:28:51.658Z,99134.40
2022-10-04T04:31:31.502Z,99143.60
2022-10-04T04:34:22.379Z,99138.60
2022-10-04T04:36:48.907Z,99141.20
2022-10-04T04:39:39.257Z,99144.80
2022-10-04T04:42:27.808Z,99144.60
2022-10-04T04:45:00.354Z,99148.40
2022-10-04T04:47:41.176Z,99153.40
2022-10-04T04:50:23.219Z,99153.60
2022-10-04T04:52:52.827Z,99155.00
2022-10-04T04:55:50.063Z,99157.40
2022-10-04T04:58:23.038Z,99162.40
2022-10-04T05:01:07.304Z,99164.60
2022-10-04T05:03:33.786Z,99164.80
2022-10-04T05:06:04.132Z,99164.40
2022-10-04T05:08:33.367Z,99173.80
2022-10-04T05:11:08.107Z,99172.40
2022-10-04T05:13:48.248Z,99173.60
2022-10-04T05:16:39.856Z,99179.40
2022-10-04T05:19:16.657Z,99176.40
2022-10-04T05:21:45.913Z,99178.60
2022-10-04T05:24:24.792Z,99187.20
2022-10-04T05:27:00.868Z,99190.00
2022-10-04T05:29:33.327Z,99188.60
2022-10-04T05:32:29.986Z,99187.40
2022-10-04T05:34:56.319Z,99202.00
2022-10-04T05:37:50.368Z,99205.40
2022-10-04T05:40:47.970Z,99207.20
2022-10-04T05:43:28.329Z,99212.80
2022-10-04T05:46:09.996Z,99221.20
2022-10-04T05:48:36.414Z,99218.80
2022-10-04T05:51:19.232Z,99223.60
2022-10-04T05:53:45.921Z,99227.40
2022-10-04T05:56:30.638Z,99232.00
2022-10-04T05:59:31.797Z,99233.20
2022-10-04T06:02:11.772Z,99237.80
2022-10-04T06:05:09.943Z,99236.40
2022-10-04T06:07:40.455Z,99244.80
2022-10-04T06:10:52.202Z,99245.80
2022-10-04T06:13:44.544Z,99253.40
2022-10-04T06:16:54.478Z,99250.60
2022-10-04T06:19:43.409Z,99255.00
2022-10-04T06:22:17.547Z,99260.40
2022-10-04T06:24:51.341Z,99266.40
2022-10-04T06:27:59.915Z,99269.60
2022-10-04T06:30:26.769Z,99275.20
2022-10-04T06:33:31.693Z,99273.20
2022-10-04T06:36:42.398Z,99266.40
2022-10-04T06:39:36.350Z,99274.60
2022-10-04T06:42:10.964Z,99279.00
2022-10-04T06:45:28.412Z,99280.60
2022-10-04T06:48:15.092Z,99282.20
2022-10-04T06:50:54.659Z,99279.80
2022-10-04T06:53:45.376Z,99285.80
2022-10-04T06:56:29.954Z,99286.20
2022-10-04T06:59:21.850Z,99296.80
2022-10-04T07:01:54.481Z,99305.40
2022-10-04T07:07:37.356Z,99319.20
2022-10-04T07:10:34.538Z,99318.20
2022-10-04T07:13:09.110Z,99323.40
2022-10-04T07:16:05.417Z,99328.20
2022-10-04T07:18:41.880Z,99336.40
2022-10-04T07:21:12.077Z,99333.20
2022-10-04T07:23:56.937Z,99343.80
2022-10-04T07:26:44.732Z,99346.00
2022-10-04T07:29:22.684Z,99345.80
2022-10-04T07:32:13.151Z,99344.00
2022-10-04T07:34:46.460Z,99349.80
2022-10-04T07:37:13.324Z,99352.80
2022-10-04T07:39:50.651Z,99354.00
2022-10-04T07:42:31.089Z,99357.20
2022-10-04T07:45:11.315Z,99356.60
2022-10-04T07:47:37.712Z,99353.00
2022-10-04T07:50:37.634Z,99364.60
2022-10-04T07:53:09.601Z,99363.20
2022-10-04T07:55:56.162Z,99367.80
2022-10-04T07:58:46.967Z,99368.00
2022-10-04T08:01:20.901Z,99367.20
2022-10-04T08:04:10.951Z,99373.60
2022-10-04T08:07:01.967Z,99372.00
2022-10-04T08:09:45.864Z,99377.60
2022-10-04T08:12:21.145Z,99383.60
2022-10-04T08:15:36.843Z,99382.20
2022-10-04T08:18:57.329Z,99384.00
2022-10-04T08:21:31.892Z,99385.60
2022-10-04T08:24:25.158Z,99389.40
2022-10-04T08:26:58.063Z,99391.60
2022-10-04T08:30:00.545Z,99395.40
2022-10-04T08:33:05.711Z,99400.40
2022-10-04T08:35:37.726Z,99397.20
2022-10-04T08:38:34.319Z,99401.60
2022-10-04T08:41:07.823Z,99413.60
2022-10-04T08:44:05.543Z,99405.60
2022-10-04T08:46:58.538Z,99417.40
2022-10-04T08:50:08.550Z,99418.40
2022-10-04T08:52:45.349Z,99421.60
2022-10-04T08:55:44.437Z,99415.20
2022-10-04T08:58:34.644Z,99416.80
2022-10-04T09:01:43.540Z,99419.80
2022-10-04T09:04:40.184Z,99421.00
2022-10-04T09:07:33.630Z,99422.20
2022-10-04T09:10:46.985Z,99428.20
2022-10-04T09:13:43.652Z,99430.40
2022-10-04T09:16:29.541Z,99442.00
2022-10-04T09:20:19.681Z,99435.60
2022-10-04T09:23:45.264Z,99449.20
2022-10-04T09:26:21.403Z,99441.80
2022-10-04T09:29:24.839Z,99450.00
2022-10-04T09:32:13.138Z,99454.20
2022-10-04T09:35:09.708Z,99452.80
2022-10-04T09:38:03.470Z,99456.60
2022-10-04T09:41:21.880Z,99454.60
2022-10-04T09:44:07.043Z,99459.20
2022-10-04T09:46:44.738Z,99448.80
2022-10-04T09:50:01.206Z,99456.80
2022-10-04T09:53:04.499Z,99463.00
2022-10-04T09:55:52.385Z,99460.20
2022-10-04T09:59:31.911Z,99461.00
2022-10-04T10:02:39.677Z,99460.00
2022-10-04T10:05:27.189Z,99464.00
2022-10-04T10:08:14.603Z,99463.20
2022-10-04T10:11:08.367Z,99470.00
2022-10-04T10:14:10.653Z,99476.20
2022-10-04T10:17:01.952Z,99478.00
2022-10-04T10:20:00.580Z,99479.60
2022-10-04T10:23:24.629Z,99476.60
2022-10-04T10:26:24.387Z,99481.60
2022-10-04T10:29:26.186Z,99484.20
2022-10-04T10:32:17.436Z,99488.40
2022-10-04T10:35:41.606Z,99496.00
2022-10-04T10:38:50.151Z,99489.40
2022-10-04T10:41:47.357Z,99491.80
2022-10-04T10:44:55.771Z,99486.00
2022-10-04T10:47:31.761Z,99489.40
2022-10-04T10:50:13.443Z,99483.80
2022-10-04T10:53:11.116Z,99490.80
2022-10-04T10:56:29.311Z,99487.60
2022-10-04T10:59:59.962Z,99482.00
2022-10-04T11:03:13.315Z,99491.60
2022-10-04T11:06:08.101Z,99501.00
2022-10-04T11:08:34.411Z,99499.60
2022-10-04T11:11:19.319Z,99493.00
2022-10-04T11:13:56.803Z,99502.00
2022-10-04T11:16:47.080Z,99509.00
2022-10-04T11:19:49.764Z,99502.60
2022-10-04T11:22:59.954Z,99516.80
2022-10-04T11:26:16.132Z,99525.60
2022-10-04T11:29:12.153Z,99524.20
2022-10-04T11:31:54.258Z,99530.60
2022-10-04T11:34:59.050Z,99533.80
2022-10-04T11:37:56.733Z,99543.40
2022-10-04T11:40:54.028Z,99537.80
2022-10-04T11:43:59.816Z,99539.00
2022-10-04T11:46:35.475Z,99541.20
2022-10-04T11:49:19.334Z,99541.00
2022-10-04T11:52:05.388Z,99536.00
2022-10-04T11:54:45.111Z,99528.80
2022-10-04T11:57:30.827Z,99537.60
2022-10-04T12:00:06.889Z,99542.40
2022-10-04T12:03:18.830Z,99539.80
2022-10-04T12:06:35.572Z,99539.00
2022-10-04T12:09:19.778Z,99539.80
2022-10-04T12:12:07.454Z,99545.80
2022-10-04T12:14:56.984Z,99543.20
2022-10-04T12:18:17.214Z,99550.20
2022-10-04T12:21:28.204Z,99542.40
2022-10-04T12:24:38.547Z,99553.20
2022-10-04T12:27:24.113Z,99554.20
2022-10-04T12:30:46.474Z,99562.20
2022-10-04T12:33:25.720Z,99555.80
2022-10-04T12:36:09.749Z,99559.40
2022-10-04T12:39:00.987Z,99565.60
2022-10-04T12:42:07.186Z,99560.00
2022-10-04T12:44:59.493Z,99553.00
2022-10-04T12:47:41.287Z,99560.00
2022-10-04T12:50:51.447Z,99568.40
2022-10-04T12:53:33.850Z,99571.20
2022-10-04T12:56:40.461Z,99572.40
2022-10-04T12:59:31.954Z,99579.20
2022-10-04T13:02:32.322Z,99577.40
2022-10-04T13:05:10.233Z,99588.80
2022-10-04T13:08:05.134Z,99587.00
2022-10-04T13:10:54.239Z,99589.60
2022-10-04T13:14:07.761Z,99591.60
2022-10-04T13:17:27.248Z,99595.40
2022-10-04T13:20:30.570Z,99599.60
2022-10-04T13:23:39.647Z,99596.20
2022-10-04T13:26:36.620Z,99599.20
2022-10-04T13:29:13.615Z,99602.00
2022-10-04T13:31:49.578Z,99598.60
2022-10-04T13:34:45.586Z,99594.80
2022-10-04T13:37:29.639Z,99595.80
2022-10-04T13:40:35.457Z,99596.00
2022-10-04T13:43:35.537Z,99597.40
2022-10-04T13:46:33.816Z,99599.20
2022-10-04T13:49:13.106Z,99597.00
2022-10-04T13:52:19.809Z,99600.60
2022-10-04T13:55:33.212Z,99601.00
2022-10-04T13:58:11.001Z,99607.60
2022-10-04T14:01:02.167Z,99605.40
2022-10-04T14:04:24.531Z,99611.80
2022-10-04T14:07:17.936Z,99612.20
2022-10-04T14:09:45.743Z,99619.20
2022-10-04T14:12:30.186Z,99622.00
2022-10-04T14:15:40.617Z,99620.20
2022-10-04T14:18:30.599Z,99625.80
2022-10-04T14:21:47.133Z,99629.00
2022-10-04T14:24:53.150Z,99631.40
2022-10-04T14:27:43.969Z,99632.00
2022-10-04T14:30:23.632Z,99635.00
2022-10-04T14:33:29.248Z,99639.00
2022-10-04T14:36:48.038Z,99641.60
2022-10-04T14:39:21.400Z,99641.80
2022-10-04T14:42:30.624Z,99648.00
2022-10-04T14:45:29.696Z,99652.20
2022-10-04T14:48:23.805Z,99650.60
2022-10-04T14:51:16.041Z,99650.60
2022-10-04T14:54:00.780Z,99651.40
2022-10-04T14:57:11.913Z,99648.40
2022-10-04T15:00:04.390Z,99656.40
2022-10-04T15:02:31.195Z,99658.20
2022-10-04T15:05:02.890Z,99662.60
2022-10-04T15:07:36.321Z,99661.00
2022-10-04T15:10:19.862Z,99662.40
2022-10-04T15:13:11.020Z,99661.80
2022-10-04T15:16:06.312Z,99665.60
2022-10-04T15:19:04.127Z,99662.80
2022-10-04T15:21:34.898Z,99661.60
2022-10-04T15:24:16.514Z,99665.60
2022-10-04T15:26:55.160Z,99666.40
2022-10-04T15:30:02.035Z,99671.20
2022-10-04T15:32:48.123Z,99666.40
2022-10-04T15:36:25.991Z,99668.20
2022-10-04T15:39:02.515Z,99669.00
2022-10-04T15:41:53.183Z,99674.60
2022-10-04T15:44:40.770Z,99676.20
2022-10-04T15:47:37.776Z,99671.60
2022-10-04T15:50:44.819Z,99678.20
2022-10-04T15:53:50.306Z,99679.60
2022-10-04T15:56:26.905Z,99682.60
2022-10-04T15:59:36.374Z,99686.20
2022-10-04T16:02:33.817Z,99687.40
2022-10-04T16:05:18.794Z,99686.40
2022-10-04T16:08:13.413Z,99690.60
2022-10-04T16:11:07.454Z,99691.00
2022-10-04T16:13:54.084Z,99692.20
2022-10-04T16:16:28.686Z,99691.40
2022-10-04T16:19:34.796Z,99697.00
2022-10-04T16:22:15.447Z,99701.80
2022-10-04T16:25:20.324Z,99700.20
2022-10-04T16:27:56.016Z,99701.40
2022-10-04T16:30:32.921Z,99703.20
2022-10-04T16:33:32.576Z,99703.00
2022-10-04T16:36:09.412Z,99707.40
2022-10-04T16:39:05.332Z,99710.00
2022-10-04T16:41:39.602Z,99713.20
2022-10-04T16:44:21.546Z,99718.60
2022-10-04T16:46:48.211Z,99719.00
2022-10-04T16:49:26.319Z,99727.40
2022-10-04T16:52:19.727Z,99725.60
2022-10-04T16:55:21.606Z,99724.60
2022-10-04T16:58:25.531Z,99721.80
2022-10-04T17:01:29.063Z,99722.20
2022-10-04T17:04:06.741Z,99726.00
2022-10-04T17:07:13.179Z,99729.40
2022-10-04T17:09:59.475Z,99728.60
2022-10-04T17:12:44.787Z,99735.60
2022-10-04T17:15:14.299Z,99737.60
2022-10-04T17:17:52.842Z,99737.60
2022-10-04T17:20:49.565Z,99735.80
2022-10-04T17:23:47.727Z,99733.60
2022-10-04T17:26:26.096Z,99741.60
2022-10-04T17:29:07.403Z,99740.60
2022-10-04T17:31:48.015Z,99736.00
2022-10-04T17:34:46.004Z,99732.20
2022-10-04T17:37:37.091Z,99735.40
2022-10-04T17:40:12.453Z,99735.20
2022-10-04T17:43:05.275Z,99736.20
2022-10-04T17:45:58.375Z,99740.20
2022-10-04T17:48:52.602Z,99737.80
2022-10-04T17:51:40.591Z,99739.60
2022-10-04T17:54:32.693Z,99741.40
2022-10-04T17:57:02.572Z,99736.40
2022-10-04T17:59:37.427Z,99738.20
2022-10-04T18:02:32.380Z,99745.20
2022-10-04T18:05:12.503Z,99740.80
2022-10-04T18:08:03.279Z,99746.00
2022-10-04T18:10:45.974Z,99748.40
2022-10-04T18:13:48.622Z,99750.00
2022-10-04T18:16:28.346Z,99753.80
2022-10-04T18:18:54.853Z,99755.40
2022-10-04T18:21:31.054Z,99760.80
2022-10-04T18:24:15.670Z,99764.20
2022-10-04T18:27:04.306Z,99763.60
2022-10-04T18:29:44.444Z,99769.60
2022-10-04T18:32:26.420Z,99768.80
2022-10-04T18:34:58.506Z,99768.00
2022-10-04T18:37:37.470Z,99773.80
2022-10-04T18:40:18.048Z,99773.80
2022-10-04T18:42:56.498Z,99772.40
2022-10-04T18:45:33.533Z,99768.00
2022-10-04T18:48:07.053Z,99769.00
2022-10-04T18:50:46.393Z,99780.60
2022-10-04T18:54:00.752Z,99787.60
2022-10-04T18:56:33.105Z,99794.00
2022-10-04T18:59:36.125Z,99796.80
2022-10-04T19:02:35.304Z,99800.00
2022-10-04T19:05:42.888Z,99805.80
2022-10-04T19:08:24.856Z,99805.20
2022-10-04T19:10:55.781Z,99806.00
2022-10-04T19:13:33.339Z,99805.60
2022-10-04T19:16:10.939Z,99808.80
2022-10-04T19:18:50.066Z,99812.40
2022-10-04T19:21:30.352Z,99811.40
2022-10-04T19:24:47.550Z,99808.40
2022-10-04T19:27:26.719Z,99814.20
2022-10-04T19:30:12.822Z,99810.00
2022-10-04T19:32:46.850Z,99807.00
2022-10-04T19:36:02.682Z,99816.20
2022-10-04T19:39:02.654Z,99811.60
2022-10-04T19:42:02.343Z,99817.40
2022-10-04T19:44:46.931Z,99815.80
2022-10-04T19:47:48.629Z,99819.20
2022-10-04T19:50:46.068Z,99821.00
2022-10-04T19:53:28.104Z,99829.20
2022-10-04T19:55:58.489Z,99832.60
2022-10-04T19:58:38.993Z,99835.60
2022-10-04T20:01:16.319Z,99836.40
2022-10-04T20:03:43.287Z,99838.60
2022-10-04T20:06:10.022Z,99835.80
2022-10-04T20:08:59.375Z,99840.40
2022-10-04T20:11:48.030Z,99833.80
2022-10-04T20:14:14.670Z,99837.80
2022-10-04T20:16:47.442Z,99843.20
2022-10-04T20:19:27.534Z,99834.60
2022-10-04T20:22:17.788Z,99837.20
2022-10-04T20:24:44.109Z,99835.80
2022-10-04T20:27:29.832Z,99844.60
2022-10-04T20:30:06.139Z,99853.40
2022-10-04T20:32:33.538Z,99850.80
2022-10-04T20:35:00.947Z,99853.60
2022-10-04T20:38:31.850Z,99852.40
2022-10-04T20:40:59.081Z,99859.20
2022-10-04T20:43:25.952Z,99860.80
2022-10-04T20:45:54.243Z,99862.80
2022-10-04T20:48:28.377Z,99864.60
2022-10-04T20:50:55.236Z,99861.20
2022-10-04T20:53:23.910Z,99864.40
2022-10-04T20:55:51.816Z,99866.40
2022-10-04T20:58:32.097Z,99869.00
2022-10-04T21:01:40.210Z,99867.20
2022-10-04T21:04:32.959Z,99869.00
2022-10-04T21:07:07.172Z,99870.60
2022-10-04T21:09:36.838Z,99877.20
2022-10-04T21:12:03.862Z,99877.00
2022-10-04T21:14:31.857Z,99872.40
2022-10-04T21:17:02.607Z,99868.40
2022-10-04T21:19:44.402Z,99873.40
2022-10-04T21:22:16.806Z,99876.00
2022-10-04T21:24:49.081Z,99876.80
2022-10-04T21:27:44.870Z,99878.20
2022-10-04T21:30:16.309Z,99877.40
2022-10-04T21:32:42.830Z,99875.00
2022-10-04T21:35:09.598Z,99872.80
2022-10-04T21:37:35.986Z,99869.20
2022-10-04T21:40:03.519Z,99869.40
2022-10-04T21:42:29.891Z,99870.40
2022-10-04T21:44:56.308Z,99876.00
2022-10-04T21:47:22.699Z,99877.00
2022-10-04T21:49:51.127Z,99878.40
2022-10-04T21:52:18.123Z,99866.80
2022-10-04T21:54:45.129Z,99869.80
2022-10-04T21:57:12.263Z,99863.80
2022-10-04T21:59:38.659Z,99867.00
2022-10-04T22:02:07.016Z,99866.80
2022-10-04T22:04:33.478Z,99872.20
2022-10-04T22:06:59.884Z,99867.20
2022-10-04T22:09:26.238Z,99867.00
2022-10-04T22:11:52.547Z,99871.40
2022-10-04T22:14:18.938Z,99878.60
2022-10-04T22:16:45.872Z,99877.40
2022-10-04T22:19:12.428Z,99879.20
2022-10-04T22:21:38.784Z,99878.20
2022-10-04T22:24:11.236Z,99887.20
2022-10-04T22:26:37.560Z,99884.40
2022-10-04T22:29:11.767Z,99890.40
2022-10-04T22:31:41.949Z,99894.00
2022-10-04T22:34:19.350Z,99900.20
2022-10-04T22:36:46.185Z,99891.60
2022-10-04T22:39:15.060Z,99889.80
2022-10-04T22:41:52.936Z,99894.60
2022-10-04T22:44:27.456Z,99901.20
2022-10-04T22:46:58.565Z,99909.20
2022-10-04T22:49:27.068Z,99911.00
2022-10-04T22:51:55.196Z,99914.40
2022-10-04T22:54:29.498Z,99920.20
2022-10-04T22:56:55.917Z,99917.00
2022-10-04T22:59:26.620Z,99921.00
2022-10-04T23:01:52.923Z,99923.40
2022-10-04T23:04:24.318Z,99925.60
2022-10-04T23:06:51.389Z,99919.00
2022-10-04T23:09:17.935Z,99917.80
2022-10-04T23:11:44.325Z,99917.20
2022-10-04T23:14:11.010Z,99914.80
2022-10-04T23:16:38.191Z,99917.80
2022-10-04T23:19:12.149Z,99916.80
2022-10-04T23:21:39.212Z,99916.40
2022-10-04T23:24:17.498Z,99913.20
2022-10-04T23:26:54.310Z,99911.40
2022-10-04T23:29:29.823Z,99918.80
2022-10-04T23:31:56.584Z,99910.40
2022-10-04T23:34:47.717Z,99911.40
2022-10-04T23:37:21.449Z,99910.00
2022-10-04T23:39:48.233Z,99906.60
2022-10-04T23:42:28.297Z,99903.80
2022-10-04T23:44:56.325Z,99893.40
2022-10-04T23:47:31.389Z,99882.40
2022-10-04T23:49:57.809Z,99879.40
2022-10-04T23:52:35.610Z,99881.60
2022-10-04T23:55:02.371Z,99877.60
2022-10-04T23:57:28.999Z,99875.80
2022-10-04T23:59:55.383Z,99875.40
